sensor_id;sensor_type;location;lat;lon;timestamp;temperature;humidity
71082;SHT31;58740;50.672;18.690;2023-02-10T00:01:39;-0.86;65.17
71082;SHT31;58740;50.672;18.690;2023-02-10T00:04:07;-0.87;65.31
71082;SHT31;58740;50.672;18.690;2023-02-10T00:06:37;-0.87;65.31
71082;SHT31;58740;50.672;18.690;2023-02-10T00:09:05;-0.89;65.08
71082;SHT31;58740;50.672;18.690;2023-02-10T00:11:32;-0.90;65.13
71082;SHT31;58740;50.672;18.690;2023-02-10T00:14:19;-0.91;65.24
71082;SHT31;58740;50.672;18.690;2023-02-10T00:16:50;-0.91;65.01
71082;SHT31;58740;50.672;18.690;2023-02-10T00:19:20;-0.92;65.13
71082;SHT31;58740;50.672;18.690;2023-02-10T00:21:50;-0.92;65.33
71082;SHT31;58740;50.672;18.690;2023-02-10T00:24:19;-0.93;65.53
71082;SHT31;58740;50.672;18.690;2023-02-10T00:26:47;-0.94;65.41
71082;SHT31;58740;50.672;18.690;2023-02-10T00:29:16;-0.92;65.40
71082;SHT31;58740;50.672;18.690;2023-02-10T00:31:44;-0.89;65.42
71082;SHT31;58740;50.672;18.690;2023-02-10T00:34:14;-0.86;65.22
71082;SHT31;58740;50.672;18.690;2023-02-10T00:36:44;-0.82;65.16
71082;SHT31;58740;50.672;18.690;2023-02-10T00:39:13;-0.78;65.16
71082;SHT31;58740;50.672;18.690;2023-02-10T00:41:42;-0.75;65.16
71082;SHT31;58740;50.672;18.690;2023-02-10T00:44:10;-0.73;65.14
71082;SHT31;58740;50.672;18.690;2023-02-10T00:46:38;-0.71;64.96
71082;SHT31;58740;50.672;18.690;2023-02-10T00:49:06;-0.72;64.89
71082;SHT31;58740;50.672;18.690;2023-02-10T00:51:34;-0.72;65.09
71082;SHT31;58740;50.672;18.690;2023-02-10T00:54:02;-0.73;65.03
71082;SHT31;58740;50.672;18.690;2023-02-10T00:56:30;-0.75;65.07
71082;SHT31;58740;50.672;18.690;2023-02-10T00:58:58;-0.75;64.79
71082;SHT31;58740;50.672;18.690;2023-02-10T01:01:25;-0.78;65.00
71082;SHT31;58740;50.672;18.690;2023-02-10T01:03:53;-0.81;64.86
71082;SHT31;58740;50.672;18.690;2023-02-10T01:06:21;-0.82;64.93
71082;SHT31;58740;50.672;18.690;2023-02-10T01:08:49;-0.86;64.97
71082;SHT31;58740;50.672;18.690;2023-02-10T01:11:17;-0.88;65.04
71082;SHT31;58740;50.672;18.690;2023-02-10T01:13:45;-0.91;65.06
71082;SHT31;58740;50.672;18.690;2023-02-10T01:16:14;-0.93;65.07
71082;SHT31;58740;50.672;18.690;2023-02-10T01:18:46;-0.94;65.07
71082;SHT31;58740;50.672;18.690;2023-02-10T01:21:15;-0.97;65.13
71082;SHT31;58740;50.672;18.690;2023-02-10T01:23:46;-0.99;65.07
71082;SHT31;58740;50.672;18.690;2023-02-10T01:26:15;-1.01;65.23
71082;SHT31;58740;50.672;18.690;2023-02-10T01:28:43;-1.03;65.29
71082;SHT31;58740;50.672;18.690;2023-02-10T01:31:12;-1.06;65.21
71082;SHT31;58740;50.672;18.690;2023-02-10T01:33:44;-1.08;64.97
71082;SHT31;58740;50.672;18.690;2023-02-10T01:36:14;-1.10;65.10
71082;SHT31;58740;50.672;18.690;2023-02-10T01:38:45;-1.12;65.17
71082;SHT31;58740;50.672;18.690;2023-02-10T01:41:14;-1.09;65.26
71082;SHT31;58740;50.672;18.690;2023-02-10T01:46:34;-1.04;65.16
71082;SHT31;58740;50.672;18.690;2023-02-10T01:49:10;-1.01;65.27
71082;SHT31;58740;50.672;18.690;2023-02-10T01:51:46;-0.99;65.23
71082;SHT31;58740;50.672;18.690;2023-02-10T01:57:32;-0.99;65.26
71082;SHT31;58740;50.672;18.690;2023-02-10T02:00:02;-0.99;65.29
71082;SHT31;58740;50.672;18.690;2023-02-10T02:02:32;-1.02;65.29
71082;SHT31;58740;50.672;18.690;2023-02-10T02:05:04;-1.03;65.33
71082;SHT31;58740;50.672;18.690;2023-02-10T02:07:44;-1.04;65.08
71082;SHT31;58740;50.672;18.690;2023-02-10T02:10:12;-1.08;65.15
71082;SHT31;58740;50.672;18.690;2023-02-10T02:12:55;-1.11;65.06
71082;SHT31;58740;50.672;18.690;2023-02-10T02:15:40;-1.13;65.44
71082;SHT31;58740;50.672;18.690;2023-02-10T02:28:29;-1.23;65.77
71082;SHT31;58740;50.672;18.690;2023-02-10T02:31:35;-1.26;65.85
71082;SHT31;58740;50.672;18.690;2023-02-10T02:37:19;-1.32;65.68
71082;SHT31;58740;50.672;18.690;2023-02-10T02:39:53;-1.32;65.80
71082;SHT31;58740;50.672;18.690;2023-02-10T02:42:26;-1.31;65.85
71082;SHT31;58740;50.672;18.690;2023-02-10T02:44:57;-1.29;65.81
71082;SHT31;58740;50.672;18.690;2023-02-10T03:02:15;-1.21;65.77
71082;SHT31;58740;50.672;18.690;2023-02-10T03:04:49;-1.22;65.76
71082;SHT31;58740;50.672;18.690;2023-02-10T03:07:17;-1.25;65.82
71082;SHT31;58740;50.672;18.690;2023-02-10T03:09:45;-1.27;65.99
71082;SHT31;58740;50.672;18.690;2023-02-10T03:12:13;-1.29;65.98
71082;SHT31;58740;50.672;18.690;2023-02-10T03:14:40;-1.32;65.93
71082;SHT31;58740;50.672;18.690;2023-02-10T03:17:08;-1.36;65.84
71082;SHT31;58740;50.672;18.690;2023-02-10T03:19:37;-1.38;65.99
71082;SHT31;58740;50.672;18.690;2023-02-10T03:22:04;-1.40;66.13
71082;SHT31;58740;50.672;18.690;2023-02-10T03:24:32;-1.42;66.21
71082;SHT31;58740;50.672;18.690;2023-02-10T03:27:00;-1.45;66.29
71082;SHT31;58740;50.672;18.690;2023-02-10T03:29:28;-1.48;66.37
71082;SHT31;58740;50.672;18.690;2023-02-10T03:31:56;-1.49;66.36
71082;SHT31;58740;50.672;18.690;2023-02-10T03:34:24;-1.52;66.33
71082;SHT31;58740;50.672;18.690;2023-02-10T03:36:52;-1.54;66.34
71082;SHT31;58740;50.672;18.690;2023-02-10T03:39:19;-1.58;66.36
71082;SHT31;58740;50.672;18.690;2023-02-10T03:41:48;-1.60;66.50
71082;SHT31;58740;50.672;18.690;2023-02-10T03:44:15;-1.60;66.48
71082;SHT31;58740;50.672;18.690;2023-02-10T03:46:43;-1.62;66.46
71082;SHT31;58740;50.672;18.690;2023-02-10T03:49:11;-1.64;66.35
71082;SHT31;58740;50.672;18.690;2023-02-10T03:51:38;-1.66;66.56
71082;SHT31;58740;50.672;18.690;2023-02-10T03:54:06;-1.68;66.53
71082;SHT31;58740;50.672;18.690;2023-02-10T03:56:34;-1.67;66.71
71082;SHT31;58740;50.672;18.690;2023-02-10T03:59:02;-1.65;66.66
71082;SHT31;58740;50.672;18.690;2023-02-10T04:01:31;-1.63;66.49
71082;SHT31;58740;50.672;18.690;2023-02-10T04:04:00;-1.59;66.58
71082;SHT31;58740;50.672;18.690;2023-02-10T04:06:28;-1.57;66.49
71082;SHT31;58740;50.672;18.690;2023-02-10T04:08:56;-1.56;66.38
71082;SHT31;58740;50.672;18.690;2023-02-10T04:11:24;-1.56;66.35
71082;SHT31;58740;50.672;18.690;2023-02-10T04:13:51;-1.56;66.31
71082;SHT31;58740;50.672;18.690;2023-02-10T04:16:19;-1.59;66.21
71082;SHT31;58740;50.672;18.690;2023-02-10T04:18:49;-1.61;66.31
71082;SHT31;58740;50.672;18.690;2023-02-10T04:21:17;-1.61;66.27
71082;SHT31;58740;50.672;18.690;2023-02-10T04:23:45;-1.65;66.32
71082;SHT31;58740;50.672;18.690;2023-02-10T04:26:12;-1.67;66.36
71082;SHT31;58740;50.672;18.690;2023-02-10T04:28:40;-1.70;66.34
71082;SHT31;58740;50.672;18.690;2023-02-10T04:31:08;-1.72;66.26
71082;SHT31;58740;50.672;18.690;2023-02-10T04:33:37;-1.76;66.34
71082;SHT31;58740;50.672;18.690;2023-02-10T04:36:05;-1.78;66.40
71082;SHT31;58740;50.672;18.690;2023-02-10T04:38:34;-1.80;66.36
71082;SHT31;58740;50.672;18.690;2023-02-10T04:41:02;-1.83;66.43
71082;SHT31;58740;50.672;18.690;2023-02-10T04:43:32;-1.85;66.69
71082;SHT31;58740;50.672;18.690;2023-02-10T04:46:00;-1.89;66.52
71082;SHT31;58740;50.672;18.690;2023-02-10T04:48:30;-1.90;66.61
71082;SHT31;58740;50.672;18.690;2023-02-10T04:50:58;-1.92;66.74
71082;SHT31;58740;50.672;18.690;2023-02-10T04:53:26;-1.94;66.65
71082;SHT31;58740;50.672;18.690;2023-02-10T04:55:53;-1.97;66.66
71082;SHT31;58740;50.672;18.690;2023-02-10T04:58:21;-1.99;66.68
71082;SHT31;58740;50.672;18.690;2023-02-10T05:00:49;-2.01;66.75
71082;SHT31;58740;50.672;18.690;2023-02-10T05:03:17;-2.03;66.87
71082;SHT31;58740;50.672;18.690;2023-02-10T05:05:45;-2.07;66.85
71082;SHT31;58740;50.672;18.690;2023-02-10T05:08:13;-2.08;67.07
71082;SHT31;58740;50.672;18.690;2023-02-10T05:10:42;-2.09;66.96
71082;SHT31;58740;50.672;18.690;2023-02-10T05:13:09;-2.08;66.94
71082;SHT31;58740;50.672;18.690;2023-02-10T05:15:37;-2.06;66.98
71082;SHT31;58740;50.672;18.690;2023-02-10T05:18:05;-2.02;66.93
71082;SHT31;58740;50.672;18.690;2023-02-10T05:20:33;-1.98;66.84
71082;SHT31;58740;50.672;18.690;2023-02-10T05:23:01;-1.97;66.68
71082;SHT31;58740;50.672;18.690;2023-02-10T05:25:29;-1.98;66.68
71082;SHT31;58740;50.672;18.690;2023-02-10T05:27:57;-1.98;66.77
71082;SHT31;58740;50.672;18.690;2023-02-10T05:30:25;-1.98;66.70
71082;SHT31;58740;50.672;18.690;2023-02-10T05:32:52;-1.99;67.04
71082;SHT31;58740;50.672;18.690;2023-02-10T05:35:20;-2.00;67.03
71082;SHT31;58740;50.672;18.690;2023-02-10T05:37:48;-2.03;67.11
71082;SHT31;58740;50.672;18.690;2023-02-10T05:40:15;-2.05;67.12
71082;SHT31;58740;50.672;18.690;2023-02-10T05:42:43;-2.08;67.05
71082;SHT31;58740;50.672;18.690;2023-02-10T05:45:11;-2.11;67.29
71082;SHT31;58740;50.672;18.690;2023-02-10T05:47:39;-2.14;67.21
71082;SHT31;58740;50.672;18.690;2023-02-10T05:50:06;-2.17;67.10
71082;SHT31;58740;50.672;18.690;2023-02-10T05:52:35;-2.19;67.11
71082;SHT31;58740;50.672;18.690;2023-02-10T05:55:03;-2.23;67.29
71082;SHT31;58740;50.672;18.690;2023-02-10T05:57:31;-2.27;67.28
71082;SHT31;58740;50.672;18.690;2023-02-10T05:59:59;-2.28;67.23
71082;SHT31;58740;50.672;18.690;2023-02-10T06:02:27;-2.31;67.53
71082;SHT31;58740;50.672;18.690;2023-02-10T06:04:55;-2.33;67.45
71082;SHT31;58740;50.672;18.690;2023-02-10T06:07:22;-2.35;67.53
71082;SHT31;58740;50.672;18.690;2023-02-10T06:09:50;-2.37;67.40
71082;SHT31;58740;50.672;18.690;2023-02-10T06:12:18;-2.41;67.38
71082;SHT31;58740;50.672;18.690;2023-02-10T06:14:46;-2.41;67.55
71082;SHT31;58740;50.672;18.690;2023-02-10T06:17:14;-2.41;67.74
71082;SHT31;58740;50.672;18.690;2023-02-10T06:19:42;-2.42;67.67
71082;SHT31;58740;50.672;18.690;2023-02-10T06:22:10;-2.40;67.72
71082;SHT31;58740;50.672;18.690;2023-02-10T06:24:38;-2.36;67.71
71082;SHT31;58740;50.672;18.690;2023-02-10T06:27:06;-2.32;67.55
71082;SHT31;58740;50.672;18.690;2023-02-10T06:29:34;-2.30;67.56
71082;SHT31;58740;50.672;18.690;2023-02-10T06:32:01;-2.26;67.78
71082;SHT31;58740;50.672;18.690;2023-02-10T06:34:29;-2.23;67.64
71082;SHT31;58740;50.672;18.690;2023-02-10T06:36:57;-2.21;67.53
71082;SHT31;58740;50.672;18.690;2023-02-10T06:39:25;-2.20;67.58
71082;SHT31;58740;50.672;18.690;2023-02-10T06:41:53;-2.21;67.68
71082;SHT31;58740;50.672;18.690;2023-02-10T06:44:21;-2.18;67.63
71082;SHT31;58740;50.672;18.690;2023-02-10T06:46:48;-2.16;67.70
71082;SHT31;58740;50.672;18.690;2023-02-10T06:49:16;-2.14;67.81
71082;SHT31;58740;50.672;18.690;2023-02-10T06:51:44;-2.12;67.75
71082;SHT31;58740;50.672;18.690;2023-02-10T06:54:12;-2.12;67.72
71082;SHT31;58740;50.672;18.690;2023-02-10T06:56:39;-2.10;67.73
71082;SHT31;58740;50.672;18.690;2023-02-10T06:59:09;-2.09;67.69
71082;SHT31;58740;50.672;18.690;2023-02-10T07:01:36;-2.08;67.72
71082;SHT31;58740;50.672;18.690;2023-02-10T07:04:05;-2.08;67.59
71082;SHT31;58740;50.672;18.690;2023-02-10T07:06:32;-2.06;67.86
71082;SHT31;58740;50.672;18.690;2023-02-10T07:09:00;-2.03;67.80
71082;SHT31;58740;50.672;18.690;2023-02-10T07:11:31;-2.01;67.84
71082;SHT31;58740;50.672;18.690;2023-02-10T07:14:00;-1.97;67.83
71082;SHT31;58740;50.672;18.690;2023-02-10T07:16:28;-1.93;67.82
71082;SHT31;58740;50.672;18.690;2023-02-10T07:18:58;-1.88;67.65
71082;SHT31;58740;50.672;18.690;2023-02-10T07:21:25;-1.85;67.54
71082;SHT31;58740;50.672;18.690;2023-02-10T07:23:53;-1.77;67.54
71082;SHT31;58740;50.672;18.690;2023-02-10T07:26:21;-1.69;67.44
71082;SHT31;58740;50.672;18.690;2023-02-10T07:28:50;-1.60;67.30
71082;SHT31;58740;50.672;18.690;2023-02-10T07:31:18;-1.51;67.08
71082;SHT31;58740;50.672;18.690;2023-02-10T07:33:46;-1.41;67.14
71082;SHT31;58740;50.672;18.690;2023-02-10T07:36:14;-1.31;67.02
71082;SHT31;58740;50.672;18.690;2023-02-10T07:38:41;-1.23;66.80
71082;SHT31;58740;50.672;18.690;2023-02-10T07:41:09;-1.16;66.51
71082;SHT31;58740;50.672;18.690;2023-02-10T07:43:37;-1.13;66.45
71082;SHT31;58740;50.672;18.690;2023-02-10T07:46:05;-1.09;66.54
71082;SHT31;58740;50.672;18.690;2023-02-10T07:48:32;-1.08;66.41
71082;SHT31;58740;50.672;18.690;2023-02-10T07:51:00;-1.07;66.49
71082;SHT31;58740;50.672;18.690;2023-02-10T07:53:28;-1.07;66.53
71082;SHT31;58740;50.672;18.690;2023-02-10T07:55:59;-1.05;66.42
71082;SHT31;58740;50.672;18.690;2023-02-10T07:58:27;-1.05;66.39
71082;SHT31;58740;50.672;18.690;2023-02-10T08:00:55;-1.07;66.39
71082;SHT31;58740;50.672;18.690;2023-02-10T08:03:23;-1.08;66.38
71082;SHT31;58740;50.672;18.690;2023-02-10T08:05:51;-1.09;66.41
71082;SHT31;58740;50.672;18.690;2023-02-10T08:08:19;-1.10;66.48
71082;SHT31;58740;50.672;18.690;2023-02-10T08:10:47;-1.09;66.50
71082;SHT31;58740;50.672;18.690;2023-02-10T08:13:15;-1.09;66.44
71082;SHT31;58740;50.672;18.690;2023-02-10T08:15:43;-1.08;66.56
71082;SHT31;58740;50.672;18.690;2023-02-10T08:18:11;-1.06;66.42
71082;SHT31;58740;50.672;18.690;2023-02-10T08:20:39;-1.04;66.45
71082;SHT31;58740;50.672;18.690;2023-02-10T08:23:12;-1.01;66.25
71082;SHT31;58740;50.672;18.690;2023-02-10T08:25:43;-0.99;66.34
71082;SHT31;58740;50.672;18.690;2023-02-10T08:28:11;-0.96;66.46
71082;SHT31;58740;50.672;18.690;2023-02-10T08:30:39;-0.93;66.42
71082;SHT31;58740;50.672;18.690;2023-02-10T08:33:07;-0.89;66.31
71082;SHT31;58740;50.672;18.690;2023-02-10T08:35:35;-0.83;66.17
71082;SHT31;58740;50.672;18.690;2023-02-10T08:38:04;-0.77;66.05
71082;SHT31;58740;50.672;18.690;2023-02-10T08:40:33;-0.69;66.20
71082;SHT31;58740;50.672;18.690;2023-02-10T08:43:01;-0.63;65.95
71082;SHT31;58740;50.672;18.690;2023-02-10T08:45:29;-0.59;65.88
71082;SHT31;58740;50.672;18.690;2023-02-10T08:47:57;-0.55;65.76
71082;SHT31;58740;50.672;18.690;2023-02-10T08:50:25;-0.54;65.64
71082;SHT31;58740;50.672;18.690;2023-02-10T08:52:52;-0.52;65.73
71082;SHT31;58740;50.672;18.690;2023-02-10T08:55:20;-0.48;65.67
71082;SHT31;58740;50.672;18.690;2023-02-10T08:57:49;-0.46;65.52
71082;SHT31;58740;50.672;18.690;2023-02-10T09:00:17;-0.44;65.48
71082;SHT31;58740;50.672;18.690;2023-02-10T09:02:45;-0.42;65.32
71082;SHT31;58740;50.672;18.690;2023-02-10T09:05:16;-0.40;65.27
71082;SHT31;58740;50.672;18.690;2023-02-10T09:07:46;-0.38;65.25
71082;SHT31;58740;50.672;18.690;2023-02-10T09:10:14;-0.36;65.10
71082;SHT31;58740;50.672;18.690;2023-02-10T09:12:43;-0.33;65.19
71082;SHT31;58740;50.672;18.690;2023-02-10T09:15:11;-0.30;65.05
71082;SHT31;58740;50.672;18.690;2023-02-10T09:17:39;-0.25;64.88
71082;SHT31;58740;50.672;18.690;2023-02-10T09:20:10;-0.23;64.81
71082;SHT31;58740;50.672;18.690;2023-02-10T09:22:38;-0.19;64.67
71082;SHT31;58740;50.672;18.690;2023-02-10T09:25:06;-0.15;64.57
71082;SHT31;58740;50.672;18.690;2023-02-10T09:27:34;-0.10;64.52
71082;SHT31;58740;50.672;18.690;2023-02-10T09:30:02;-0.06;64.55
71082;SHT31;58740;50.672;18.690;2023-02-10T09:32:30;-0.01;64.44
71082;SHT31;58740;50.672;18.690;2023-02-10T09:34:58;0.05;64.42
71082;SHT31;58740;50.672;18.690;2023-02-10T09:37:25;0.09;64.46
71082;SHT31;58740;50.672;18.690;2023-02-10T09:39:53;0.14;64.25
71082;SHT31;58740;50.672;18.690;2023-02-10T09:43:05;0.19;64.29
71082;SHT31;58740;50.672;18.690;2023-02-10T09:45:30;0.23;64.11
71082;SHT31;58740;50.672;18.690;2023-02-10T09:51:12;0.29;64.14
71082;SHT31;58740;50.672;18.690;2023-02-10T09:54:10;0.32;64.27
71082;SHT31;58740;50.672;18.690;2023-02-10T09:56:39;0.36;64.08
71082;SHT31;58740;50.672;18.690;2023-02-10T09:59:10;0.38;64.02
71082;SHT31;58740;50.672;18.690;2023-02-10T10:01:46;0.40;64.05
71082;SHT31;58740;50.672;18.690;2023-02-10T10:04:21;0.41;64.02
71082;SHT31;58740;50.672;18.690;2023-02-10T10:06:55;0.43;64.14
71082;SHT31;58740;50.672;18.690;2023-02-10T10:09:42;0.44;64.03
71082;SHT31;58740;50.672;18.690;2023-02-10T10:12:15;0.46;64.08
71082;SHT31;58740;50.672;18.690;2023-02-10T10:14:46;0.50;64.13
71082;SHT31;58740;50.672;18.690;2023-02-10T10:20:29;0.57;63.97
71082;SHT31;58740;50.672;18.690;2023-02-10T10:31:45;0.86;63.80
71082;SHT31;58740;50.672;18.690;2023-02-10T10:34:18;0.91;63.90
71082;SHT31;58740;50.672;18.690;2023-02-10T10:36:54;0.94;63.63
71082;SHT31;58740;50.672;18.690;2023-02-10T10:39:35;0.95;63.75
71082;SHT31;58740;50.672;18.690;2023-02-10T10:42:17;0.97;63.83
71082;SHT31;58740;50.672;18.690;2023-02-10T10:44:50;0.97;63.84
71082;SHT31;58740;50.672;18.690;2023-02-10T10:47:30;0.97;64.01
71082;SHT31;58740;50.672;18.690;2023-02-10T10:50:12;0.97;64.03
71082;SHT31;58740;50.672;18.690;2023-02-10T10:52:49;0.95;64.12
71082;SHT31;58740;50.672;18.690;2023-02-10T11:01:07;0.92;64.44
71082;SHT31;58740;50.672;18.690;2023-02-10T11:03:36;0.91;64.39
71082;SHT31;58740;50.672;18.690;2023-02-10T11:06:07;0.91;64.60
71082;SHT31;58740;50.672;18.690;2023-02-10T11:08:45;0.91;64.73
71082;SHT31;58740;50.672;18.690;2023-02-10T11:11:35;0.91;64.88
71082;SHT31;58740;50.672;18.690;2023-02-10T11:14:15;0.91;65.33
71082;SHT31;58740;50.672;18.690;2023-02-10T11:16:46;0.92;65.66
71082;SHT31;58740;50.672;18.690;2023-02-10T11:19:21;0.91;65.90
71082;SHT31;58740;50.672;18.690;2023-02-10T11:21:54;0.92;66.14
71082;SHT31;58740;50.672;18.690;2023-02-10T11:24:29;0.92;66.17
71082;SHT31;58740;50.672;18.690;2023-02-10T11:27:01;0.93;66.18
71082;SHT31;58740;50.672;18.690;2023-02-10T11:29:34;0.90;66.19
71082;SHT31;58740;50.672;18.690;2023-02-10T11:32:31;0.92;66.19
71082;SHT31;58740;50.672;18.690;2023-02-10T11:35:04;0.95;66.20
71082;SHT31;58740;50.672;18.690;2023-02-10T11:37:42;1.01;66.27
71082;SHT31;58740;50.672;18.690;2023-02-10T11:40:23;1.07;66.26
71082;SHT31;58740;50.672;18.690;2023-02-10T11:42:58;1.12;66.20
71082;SHT31;58740;50.672;18.690;2023-02-10T11:45:29;1.18;66.26
71082;SHT31;58740;50.672;18.690;2023-02-10T11:48:00;1.23;66.01
71082;SHT31;58740;50.672;18.690;2023-02-10T11:50:41;1.25;65.84
71082;SHT31;58740;50.672;18.690;2023-02-10T11:53:14;1.28;65.79
71082;SHT31;58740;50.672;18.690;2023-02-10T11:55:55;1.29;65.73
71082;SHT31;58740;50.672;18.690;2023-02-10T11:58:43;1.30;65.77
71082;SHT31;58740;50.672;18.690;2023-02-10T12:04:25;1.34;66.12
71082;SHT31;58740;50.672;18.690;2023-02-10T12:10:55;1.38;65.88
71082;SHT31;58740;50.672;18.690;2023-02-10T12:13:37;1.37;65.85
71082;SHT31;58740;50.672;18.690;2023-02-10T12:19:35;1.34;65.93
71082;SHT31;58740;50.672;18.690;2023-02-10T12:25:26;1.32;66.31
71082;SHT31;58740;50.672;18.690;2023-02-10T12:28:20;1.32;66.40
71082;SHT31;58740;50.672;18.690;2023-02-10T12:40:23;1.30;67.13
71082;SHT31;58740;50.672;18.690;2023-02-10T12:49:34;1.49;67.24
71082;SHT31;58740;50.672;18.690;2023-02-10T12:52:29;1.55;67.20
71082;SHT31;58740;50.672;18.690;2023-02-10T12:55:05;1.59;67.28
71082;SHT31;58740;50.672;18.690;2023-02-10T13:00:21;1.63;67.13
71082;SHT31;58740;50.672;18.690;2023-02-10T13:03:16;1.63;67.14
71082;SHT31;58740;50.672;18.690;2023-02-10T13:05:52;1.62;67.21
71082;SHT31;58740;50.672;18.690;2023-02-10T13:08:45;1.61;67.29
71082;SHT31;58740;50.672;18.690;2023-02-10T13:11:22;1.60;67.33
71082;SHT31;58740;50.672;18.690;2023-02-10T13:14:01;1.59;67.35
71082;SHT31;58740;50.672;18.690;2023-02-10T13:16:50;1.57;67.43
71082;SHT31;58740;50.672;18.690;2023-02-10T13:19:29;1.56;67.49
71082;SHT31;58740;50.672;18.690;2023-02-10T13:31:37;1.50;67.89
71082;SHT31;58740;50.672;18.690;2023-02-10T13:37:08;1.49;68.11
71082;SHT31;58740;50.672;18.690;2023-02-10T13:39:55;1.48;68.25
71082;SHT31;58740;50.672;18.690;2023-02-10T13:42:33;1.49;68.40
71082;SHT31;58740;50.672;18.690;2023-02-10T13:47:37;1.59;68.66
71082;SHT31;58740;50.672;18.690;2023-02-10T13:52:55;1.66;68.80
71082;SHT31;58740;50.672;18.690;2023-02-10T14:00:44;1.70;69.05
71082;SHT31;58740;50.672;18.690;2023-02-10T14:03:23;1.70;69.21
71082;SHT31;58740;50.672;18.690;2023-02-10T14:05:59;1.69;69.12
71082;SHT31;58740;50.672;18.690;2023-02-10T14:08:42;1.68;69.40
71082;SHT31;58740;50.672;18.690;2023-02-10T14:11:39;1.66;69.53
71082;SHT31;58740;50.672;18.690;2023-02-10T14:14:24;1.64;69.54
71082;SHT31;58740;50.672;18.690;2023-02-10T14:17:27;1.63;69.76
71082;SHT31;58740;50.672;18.690;2023-02-10T14:19:58;1.61;69.83
71082;SHT31;58740;50.672;18.690;2023-02-10T14:25:00;1.65;69.85
71082;SHT31;58740;50.672;18.690;2023-02-10T14:27:47;1.70;69.79
71082;SHT31;58740;50.672;18.690;2023-02-10T14:30:28;1.75;69.80
71082;SHT31;58740;50.672;18.690;2023-02-10T14:33:15;1.78;69.84
71082;SHT31;58740;50.672;18.690;2023-02-10T14:35:54;1.78;69.92
71082;SHT31;58740;50.672;18.690;2023-02-10T14:38:32;1.76;69.93
71082;SHT31;58740;50.672;18.690;2023-02-10T14:41:06;1.76;70.01
71082;SHT31;58740;50.672;18.690;2023-02-10T14:43:46;1.73;70.01
71082;SHT31;58740;50.672;18.690;2023-02-10T14:46:19;1.71;70.09
71082;SHT31;58740;50.672;18.690;2023-02-10T14:48:51;1.68;70.05
71082;SHT31;58740;50.672;18.690;2023-02-10T14:51:31;1.65;70.11
71082;SHT31;58740;50.672;18.690;2023-02-10T14:57:10;1.61;70.36
71082;SHT31;58740;50.672;18.690;2023-02-10T14:59:40;1.57;70.40
71082;SHT31;58740;50.672;18.690;2023-02-10T15:02:16;1.55;70.48
71082;SHT31;58740;50.672;18.690;2023-02-10T15:04:49;1.55;70.55
71082;SHT31;58740;50.672;18.690;2023-02-10T15:07:39;1.58;70.66
71082;SHT31;58740;50.672;18.690;2023-02-10T15:13:02;1.67;70.54
71082;SHT31;58740;50.672;18.690;2023-02-10T15:15:35;1.70;70.48
71082;SHT31;58740;50.672;18.690;2023-02-10T15:20:52;1.69;70.50
71082;SHT31;58740;50.672;18.690;2023-02-10T15:23:25;1.69;70.39
71082;SHT31;58740;50.672;18.690;2023-02-10T15:28:56;1.67;70.37
71082;SHT31;58740;50.672;18.690;2023-02-10T15:31:32;1.64;70.35
71082;SHT31;58740;50.672;18.690;2023-02-10T15:34:01;1.63;70.40
71082;SHT31;58740;50.672;18.690;2023-02-10T15:36:47;1.59;70.40
71082;SHT31;58740;50.672;18.690;2023-02-10T15:39:24;1.57;70.50
71082;SHT31;58740;50.672;18.690;2023-02-10T15:42:00;1.54;70.53
71082;SHT31;58740;50.672;18.690;2023-02-10T15:44:47;1.50;70.60
71082;SHT31;58740;50.672;18.690;2023-02-10T15:47:47;1.50;70.68
71082;SHT31;58740;50.672;18.690;2023-02-10T15:50:29;1.52;70.66
71082;SHT31;58740;50.672;18.690;2023-02-10T15:52:58;1.57;70.70
71082;SHT31;58740;50.672;18.690;2023-02-10T15:55:35;1.62;70.71
71082;SHT31;58740;50.672;18.690;2023-02-10T15:58:08;1.66;70.62
71082;SHT31;58740;50.672;18.690;2023-02-10T16:00:39;1.68;70.59
71082;SHT31;58740;50.672;18.690;2023-02-10T16:03:09;1.69;70.51
71082;SHT31;58740;50.672;18.690;2023-02-10T16:05:37;1.69;70.55
71082;SHT31;58740;50.672;18.690;2023-02-10T16:08:09;1.67;70.58
71082;SHT31;58740;50.672;18.690;2023-02-10T16:10:49;1.64;70.61
71082;SHT31;58740;50.672;18.690;2023-02-10T16:13:18;1.62;70.65
71082;SHT31;58740;50.672;18.690;2023-02-10T16:15:46;1.59;70.78
71082;SHT31;58740;50.672;18.690;2023-02-10T16:18:20;1.57;70.85
71082;SHT31;58740;50.672;18.690;2023-02-10T16:20:51;1.55;70.92
71082;SHT31;58740;50.672;18.690;2023-02-10T16:23:19;1.53;71.07
71082;SHT31;58740;50.672;18.690;2023-02-10T16:25:47;1.50;71.15
71082;SHT31;58740;50.672;18.690;2023-02-10T16:28:17;1.49;71.20
71082;SHT31;58740;50.672;18.690;2023-02-10T16:30:46;1.52;71.23
71082;SHT31;58740;50.672;18.690;2023-02-10T16:33:14;1.55;71.30
71082;SHT31;58740;50.672;18.690;2023-02-10T16:35:42;1.60;71.34
71082;SHT31;58740;50.672;18.690;2023-02-10T16:38:10;1.62;71.32
71082;SHT31;58740;50.672;18.690;2023-02-10T16:40:44;1.66;71.23
71082;SHT31;58740;50.672;18.690;2023-02-10T16:43:12;1.68;71.18
71082;SHT31;58740;50.672;18.690;2023-02-10T16:45:40;1.69;71.28
71082;SHT31;58740;50.672;18.690;2023-02-10T16:48:08;1.69;71.31
71082;SHT31;58740;50.672;18.690;2023-02-10T16:50:40;1.66;71.29
71082;SHT31;58740;50.672;18.690;2023-02-10T16:53:10;1.67;71.30
71082;SHT31;58740;50.672;18.690;2023-02-10T16:55:39;1.65;71.32
71082;SHT31;58740;50.672;18.690;2023-02-10T16:58:12;1.62;71.39
71082;SHT31;58740;50.672;18.690;2023-02-10T17:00:43;1.61;71.47
71082;SHT31;58740;50.672;18.690;2023-02-10T17:03:11;1.61;71.51
71082;SHT31;58740;50.672;18.690;2023-02-10T17:05:39;1.62;71.52
71082;SHT31;58740;50.672;18.690;2023-02-10T17:08:07;1.66;71.48
71082;SHT31;58740;50.672;18.690;2023-02-10T17:10:38;1.69;71.47
71082;SHT31;58740;50.672;18.690;2023-02-10T17:13:06;1.71;71.42
71082;SHT31;58740;50.672;18.690;2023-02-10T17:15:34;1.72;71.46
71082;SHT31;58740;50.672;18.690;2023-02-10T17:18:02;1.73;71.47
71082;SHT31;58740;50.672;18.690;2023-02-10T17:20:33;1.71;71.50
71082;SHT31;58740;50.672;18.690;2023-02-10T17:23:02;1.70;71.41
71082;SHT31;58740;50.672;18.690;2023-02-10T17:25:30;1.68;71.41
71082;SHT31;58740;50.672;18.690;2023-02-10T17:27:59;1.67;71.40
71082;SHT31;58740;50.672;18.690;2023-02-10T17:30:28;1.64;71.46
71082;SHT31;58740;50.672;18.690;2023-02-10T17:32:55;1.62;71.50
71082;SHT31;58740;50.672;18.690;2023-02-10T17:35:23;1.60;71.55
71082;SHT31;58740;50.672;18.690;2023-02-10T17:37:51;1.59;71.56
71082;SHT31;58740;50.672;18.690;2023-02-10T17:40:37;1.59;71.61
71082;SHT31;58740;50.672;18.690;2023-02-10T17:43:05;1.62;71.70
71082;SHT31;58740;50.672;18.690;2023-02-10T17:45:33;1.64;71.64
71082;SHT31;58740;50.672;18.690;2023-02-10T17:48:01;1.68;71.64
71082;SHT31;58740;50.672;18.690;2023-02-10T17:50:29;1.70;71.59
71082;SHT31;58740;50.672;18.690;2023-02-10T17:52:56;1.71;71.52
71082;SHT31;58740;50.672;18.690;2023-02-10T17:55:24;1.70;71.50